Lombardville, Illinois
Current Conditions -  °F | °C
As of 12:15 PM on Thursday 29 Jan 2015 (Local Time) from KC75 Reporting Station
Overcast Overcast  
Wind Chill: 25°   Ceiling: 2200
Heat Index: 35°   Visibility: 7mi
Dew Point: 29°   Wind: 14mph
Humidity: 81%   Direction: 310°NW
Pressure: 30.05"   Gusts: 24mph
Location:  41.1472°N, 89.6399°W
Report Text: KC75 291815Z AUTO 31012G21KT 7SM OVC022 02/M01 A3005 RMK AO2 T00151015
Loading
Personal Weather Stations






























Interactive Weather Map New forecast layout! Learn more

10-Day Weather Forecast

Advertisements
Track Severe Weather on mobile